Time;durP1;ratioP1;P1;durP2;ratioP2;P2;SDS_P1;SDS_P2;PMS_P1;PMS_P2;Temp;Humidity;BMP_temperature;BMP_pressure;BME280_temperature;BME280_humidity;BME280_pressure;Samples;Min_cycle;Max_cycle;Signal;HPM_P1;HPM_P2
2022/03/06 00:01:50;;;;;;;28.43;19.30;;;;;;;;;;4448125;32;20360;-59
2022/03/06 00:04:16;;;;;;;27.93;19.10;;;;;;;;;;4448065;32;20352;-58
2022/03/06 00:06:41;;;;;;;25.70;18.67;;;;;;;;;;4446874;32;20326;-58
2022/03/06 00:09:07;;;;;;;27.33;18.60;;;;;;;;;;4451111;32;20272;-58
2022/03/06 00:11:32;;;;;;;28.20;18.37;;;;;;;;;;4463781;32;20490;-60
2022/03/06 00:13:58;;;;;;;29.53;19.47;;;;;;;;;;4452507;32;20255;-58
2022/03/06 00:16:23;;;;;;;37.80;18.33;;;;;;;;;;4448137;32;20334;-58
2022/03/06 00:18:49;;;;;;;27.17;16.90;;;;;;;;;;4448050;32;20247;-58
2022/03/06 00:21:15;;;;;;;30.83;19.13;;;;;;;;;;4446171;32;20370;-58
2022/03/06 00:23:40;;;;;;;31.20;20.27;;;;;;;;;;4463758;32;20251;-57
2022/03/06 00:26:07;;;;;;;29.23;18.77;;;;;;;;;;4463212;32;20226;-57
2022/03/06 00:28:33;;;;;;;25.53;16.93;;;;;;;;;;4463221;32;20355;-58
2022/03/06 00:30:58;;;;;;;23.67;16.50;;;;;;;;;;4462953;32;20236;-58
2022/03/06 00:33:24;;;;;;;21.33;15.80;;;;;;;;;;4462523;32;20674;-59
2022/03/06 00:35:49;;;;;;;22.50;15.33;;;;;;;;;;4463288;32;20235;-58
2022/03/06 00:38:15;;;;;;;24.70;15.30;;;;;;;;;;4462984;32;20295;-58
2022/03/06 00:40:42;;;;;;;24.90;18.33;;;;;;;;;;4463431;32;20268;-58
2022/03/06 00:43:07;;;;;;;23.53;17.57;;;;;;;;;;4448828;32;20291;-57
2022/03/06 00:45:33;;;;;;;27.03;17.87;;;;;;;;;;4448693;32;20315;-57
2022/03/06 00:47:58;;;;;;;32.00;19.70;;;;;;;;;;4463553;32;20347;-57
2022/03/06 00:50:24;;;;;;;38.37;22.90;;;;;;;;;;4462935;32;20260;-57
2022/03/06 00:52:52;;;;;;;40.27;21.03;;;;;;;;;;4448800;32;20349;-57
2022/03/06 00:55:18;;;;;;;34.27;21.70;;;;;;;;;;4448582;32;20245;-56
2022/03/06 00:57:43;;;;;;;35.97;21.90;;;;;;;;;;4448735;32;20528;-57
2022/03/06 01:00:09;;;;;;;30.60;20.20;;;;;;;;;;4462520;32;20256;-58
2022/03/06 01:02:35;;;;;;;40.60;21.10;;;;;;;;;;4448472;32;20357;-57
2022/03/06 01:05:02;;;;;;;36.63;21.70;;;;;;;;;;4462685;32;20704;-57
2022/03/06 01:07:28;;;;;;;42.43;24.70;;;;;;;;;;4448641;32;20252;-57
2022/03/06 01:09:54;;;;;;;40.80;24.40;;;;;;;;;;4463041;32;20365;-57
2022/03/06 01:12:20;;;;;;;44.17;22.03;;;;;;;;;;4462699;32;20297;-57
2022/03/06 01:14:46;;;;;;;39.93;22.67;;;;;;;;;;4433126;32;20392;-57
2022/03/06 01:17:11;;;;;;;39.93;24.30;;;;;;;;;;4433254;32;20562;-58
2022/03/06 01:19:37;;;;;;;31.40;23.53;;;;;;;;;;4447448;32;20216;-57
2022/03/06 01:22:03;;;;;;;34.43;22.30;;;;;;;;;;4447458;32;20366;-57
2022/03/06 01:24:28;;;;;;;33.53;22.17;;;;;;;;;;4447363;32;20368;-58
2022/03/06 01:26:54;;;;;;;35.57;21.60;;;;;;;;;;4447485;32;20644;-57
2022/03/06 01:29:22;;;;;;;38.53;24.83;;;;;;;;;;4445789;32;20638;-57
2022/03/06 01:31:48;;;;;;;42.80;22.70;;;;;;;;;;4447597;32;20208;-57
2022/03/06 01:34:14;;;;;;;44.60;24.70;;;;;;;;;;4445911;32;20782;-57
2022/03/06 01:36:39;;;;;;;49.00;28.77;;;;;;;;;;4446227;32;20338;-57
2022/03/06 01:39:06;;;;;;;46.27;29.13;;;;;;;;;;4446094;32;20276;-58
2022/03/06 01:41:35;;;;;;;40.73;23.93;;;;;;;;;;4447411;32;20307;-58
2022/03/06 01:44:01;;;;;;;42.33;24.30;;;;;;;;;;4445719;32;20340;-58
2022/03/06 01:46:27;;;;;;;37.20;23.13;;;;;;;;;;4448689;32;20288;-58
2022/03/06 01:48:52;;;;;;;28.90;18.57;;;;;;;;;;4449007;32;20795;-57
2022/03/06 01:51:18;;;;;;;25.30;16.10;;;;;;;;;;4450331;32;20279;-57
2022/03/06 01:53:44;;;;;;;16.97;13.80;;;;;;;;;;4449133;32;20743;-57
2022/03/06 01:56:12;;;;;;;23.30;15.07;;;;;;;;;;4448908;32;20286;-57
2022/03/06 01:58:38;;;;;;;22.97;16.00;;;;;;;;;;4448877;32;20264;-57
2022/03/06 02:01:04;;;;;;;24.00;16.80;;;;;;;;;;4449750;32;20390;-58
2022/03/06 02:03:29;;;;;;;22.07;16.33;;;;;;;;;;4465551;32;20778;-56
2022/03/06 02:05:55;;;;;;;29.83;17.93;;;;;;;;;;4465776;32;20227;-57
2022/03/06 02:08:20;;;;;;;26.93;19.03;;;;;;;;;;4465916;32;20315;-57
2022/03/06 02:10:49;;;;;;;33.10;18.97;;;;;;;;;;4465719;32;20238;-57
2022/03/06 02:13:14;;;;;;;29.33;18.30;;;;;;;;;;4444962;32;20801;-56
2022/03/06 02:15:40;;;;;;;30.87;20.63;;;;;;;;;;4449824;32;20221;-58
2022/03/06 02:18:05;;;;;;;33.63;21.10;;;;;;;;;;4435905;32;20315;-57
2022/03/06 02:20:31;;;;;;;36.33;18.73;;;;;;;;;;4449671;32;20235;-56
2022/03/06 02:22:58;;;;;;;23.53;15.10;;;;;;;;;;4449897;32;20299;-58
2022/03/06 02:25:25;;;;;;;16.80;11.97;;;;;;;;;;4449759;32;20323;-56
2022/03/06 02:27:52;;;;;;;14.10;9.63;;;;;;;;;;4449733;32;20695;-57
2022/03/06 02:30:20;;;;;;;16.63;13.03;;;;;;;;;;4449984;32;20591;-59
2022/03/06 02:32:47;;;;;;;21.00;12.03;;;;;;;;;;4450309;32;20255;-57
2022/03/06 02:35:14;;;;;;;12.73;9.40;;;;;;;;;;4449714;32;20260;-57
2022/03/06 02:37:39;;;;;;;13.30;9.10;;;;;;;;;;4448803;32;20647;-57
2022/03/06 02:40:07;;;;;;;15.07;10.07;;;;;;;;;;4449527;32;20228;-57
2022/03/06 02:42:35;;;;;;;13.27;9.13;;;;;;;;;;4449534;32;20697;-57
2022/03/06 02:45:10;;;;;;;9.93;8.43;;;;;;;;;;4449650;32;20225;-57
2022/03/06 02:47:36;;;;;;;15.40;9.00;;;;;;;;;;4449978;32;20192;-56
2022/03/06 02:50:03;;;;;;;11.57;7.60;;;;;;;;;;4448865;32;20315;-56
2022/03/06 02:52:29;;;;;;;13.90;8.43;;;;;;;;;;4449540;32;20719;-57
2022/03/06 02:54:54;;;;;;;11.43;7.07;;;;;;;;;;4448555;32;20304;-55
2022/03/06 02:57:20;;;;;;;13.87;9.53;;;;;;;;;;4449098;32;20275;-56
2022/03/06 02:59:45;;;;;;;14.73;8.03;;;;;;;;;;4465366;32;20239;-55
2022/03/06 03:02:11;;;;;;;12.30;8.27;;;;;;;;;;4465077;32;20621;-57
2022/03/06 03:04:38;;;;;;;8.80;6.60;;;;;;;;;;4465089;32;20677;-56
2022/03/06 03:07:05;;;;;;;8.10;5.63;;;;;;;;;;4465056;32;20351;-56
2022/03/06 03:09:31;;;;;;;15.43;7.27;;;;;;;;;;4464810;32;20357;-57
2022/03/06 03:11:56;;;;;;;12.10;7.33;;;;;;;;;;4450663;32;20315;-59
2022/03/06 03:14:23;;;;;;;10.90;7.17;;;;;;;;;;4447732;32;20297;-56
2022/03/06 03:16:49;;;;;;;12.90;8.57;;;;;;;;;;4449239;32;20217;-57
2022/03/06 03:19:14;;;;;;;14.77;8.77;;;;;;;;;;4449204;32;20690;-57
2022/03/06 03:21:41;;;;;;;18.37;9.10;;;;;;;;;;4449125;32;20413;-57
2022/03/06 03:24:07;;;;;;;14.13;8.50;;;;;;;;;;4449317;32;20280;-57
2022/03/06 03:26:33;;;;;;;12.20;8.67;;;;;;;;;;4449029;32;20657;-56
2022/03/06 03:28:58;;;;;;;17.07;11.60;;;;;;;;;;4449076;32;20258;-58
2022/03/06 03:31:25;;;;;;;18.60;13.10;;;;;;;;;;4447743;32;20406;-56
2022/03/06 03:33:50;;;;;;;26.23;14.57;;;;;;;;;;4449240;32;20245;-55
2022/03/06 03:36:16;;;;;;;29.60;17.27;;;;;;;;;;4448915;32;20283;-56
2022/03/06 03:38:41;;;;;;;21.73;13.57;;;;;;;;;;4449289;32;20240;-56
2022/03/06 03:41:08;;;;;;;39.13;20.60;;;;;;;;;;4447519;32;20316;-56
2022/03/06 03:43:34;;;;;;;34.90;20.27;;;;;;;;;;4449199;32;20347;-56
2022/03/06 03:46:00;;;;;;;28.47;15.87;;;;;;;;;;4449380;32;20315;-57
2022/03/06 03:48:29;;;;;;;17.67;12.17;;;;;;;;;;4448758;32;20384;-56
2022/03/06 03:50:55;;;;;;;15.13;9.47;;;;;;;;;;4449045;32;20212;-56
2022/03/06 03:53:22;;;;;;;21.43;12.23;;;;;;;;;;4447535;32;20357;-57
2022/03/06 03:55:48;;;;;;;11.73;9.83;;;;;;;;;;4449704;32;20250;-57
2022/03/06 03:58:14;;;;;;;14.70;8.27;;;;;;;;;;4458458;32;20307;-58
2022/03/06 04:00:41;;;;;;;15.17;9.43;;;;;;;;;;4447415;32;20259;-57
2022/03/06 04:03:06;;;;;;;12.10;7.77;;;;;;;;;;4448605;32;20232;-57
2022/03/06 04:05:32;;;;;;;13.97;8.07;;;;;;;;;;4448432;32;20244;-56
2022/03/06 04:07:57;;;;;;;12.60;7.93;;;;;;;;;;4448320;32;20346;-56
2022/03/06 04:10:23;;;;;;;10.10;8.23;;;;;;;;;;4448334;32;20304;-56
2022/03/06 04:12:48;;;;;;;12.60;8.40;;;;;;;;;;4451712;32;20299;-56
2022/03/06 04:15:13;;;;;;;19.27;10.97;;;;;;;;;;4463855;32;20310;-56
2022/03/06 04:17:39;;;;;;;18.07;10.40;;;;;;;;;;4463928;32;20289;-56
2022/03/06 04:20:06;;;;;;;22.17;8.40;;;;;;;;;;4449648;32;20248;-57
2022/03/06 04:22:32;;;;;;;14.53;9.20;;;;;;;;;;4463705;32;20279;-57
2022/03/06 04:24:58;;;;;;;14.83;8.70;;;;;;;;;;4463941;32;20589;-57
2022/03/06 04:27:23;;;;;;;13.57;9.33;;;;;;;;;;4449411;32;20683;-58
2022/03/06 04:29:49;;;;;;;18.37;10.47;;;;;;;;;;4449438;32;20598;-57
2022/03/06 04:32:14;;;;;;;19.87;10.63;;;;;;;;;;4463750;32;20299;-57
2022/03/06 04:34:40;;;;;;;17.20;11.57;;;;;;;;;;4463798;32;20236;-56
2022/03/06 04:37:05;;;;;;;20.87;12.50;;;;;;;;;;4463709;32;20289;-57
2022/03/06 04:39:31;;;;;;;21.50;13.20;;;;;;;;;;4463335;32;20216;-58
2022/03/06 04:41:56;;;;;;;26.67;17.17;;;;;;;;;;4463362;32;20638;-57
2022/03/06 04:44:22;;;;;;;36.33;18.03;;;;;;;;;;4463295;32;20556;-58
2022/03/06 04:46:47;;;;;;;19.27;10.83;;;;;;;;;;4463378;32;20607;-58
2022/03/06 04:49:13;;;;;;;17.00;9.50;;;;;;;;;;4463190;32;20268;-59
2022/03/06 04:51:39;;;;;;;19.43;9.83;;;;;;;;;;4462827;32;20343;-57
2022/03/06 04:54:05;;;;;;;17.57;9.00;;;;;;;;;;4463106;32;20254;-56
2022/03/06 04:56:31;;;;;;;12.03;7.53;;;;;;;;;;4463000;32;20240;-59
2022/03/06 04:58:56;;;;;;;7.80;5.63;;;;;;;;;;4448837;32;20300;-58
2022/03/06 05:01:22;;;;;;;8.97;5.60;;;;;;;;;;4448614;32;20311;-59
2022/03/06 05:03:47;;;;;;;5.87;4.90;;;;;;;;;;4448781;32;20299;-57
2022/03/06 05:06:14;;;;;;;10.67;5.87;;;;;;;;;;4448780;32;20772;-57
2022/03/06 05:08:39;;;;;;;8.07;5.53;;;;;;;;;;4462904;32;20294;-57
2022/03/06 05:11:05;;;;;;;13.10;7.80;;;;;;;;;;4462739;32;20601;-56
2022/03/06 05:13:30;;;;;;;11.40;8.10;;;;;;;;;;4462068;32;20714;-57
2022/03/06 05:15:56;;;;;;;11.27;7.77;;;;;;;;;;4448554;32;20231;-57
2022/03/06 05:18:21;;;;;;;10.77;7.50;;;;;;;;;;4462787;32;20303;-57
2022/03/06 05:20:48;;;;;;;10.97;7.03;;;;;;;;;;4454786;32;20624;-57
2022/03/06 05:23:14;;;;;;;15.87;8.20;;;;;;;;;;4448754;32;20775;-56
2022/03/06 05:25:39;;;;;;;6.73;5.27;;;;;;;;;;4450115;32;20244;-57
2022/03/06 05:28:05;;;;;;;8.83;5.60;;;;;;;;;;4449995;32;20288;-57
2022/03/06 05:30:31;;;;;;;4.63;3.17;;;;;;;;;;4450150;32;20352;-58
2022/03/06 05:32:57;;;;;;;4.03;2.80;;;;;;;;;;4450038;32;20768;-58
2022/03/06 05:35:23;;;;;;;15.90;6.20;;;;;;;;;;4448662;32;20235;-58
2022/03/06 05:37:48;;;;;;;8.93;4.77;;;;;;;;;;4450285;32;20283;-58
2022/03/06 05:40:14;;;;;;;9.03;5.50;;;;;;;;;;4449775;32;20766;-59
2022/03/06 05:42:40;;;;;;;20.87;13.43;;;;;;;;;;4448575;32;20810;-59
2022/03/06 05:45:06;;;;;;;12.00;8.93;;;;;;;;;;4449611;32;20668;-57
2022/03/06 05:47:32;;;;;;;9.83;6.97;;;;;;;;;;4441357;32;20334;-59
2022/03/06 05:49:57;;;;;;;12.37;7.80;;;;;;;;;;4435662;32;20224;-57
2022/03/06 05:52:23;;;;;;;33.30;18.93;;;;;;;;;;4450032;32;20913;-58
2022/03/06 05:54:48;;;;;;;32.47;22.00;;;;;;;;;;4449666;32;20240;-58
2022/03/06 05:57:14;;;;;;;46.33;23.70;;;;;;;;;;4449421;32;20877;-60
2022/03/06 05:59:40;;;;;;;39.80;20.00;;;;;;;;;;4449643;32;20224;-58
2022/03/06 06:02:05;;;;;;;32.43;18.67;;;;;;;;;;4449587;32;20354;-58
2022/03/06 06:04:31;;;;;;;45.70;23.33;;;;;;;;;;4449627;32;20640;-58
2022/03/06 06:06:56;;;;;;;36.50;20.30;;;;;;;;;;4435396;32;20307;-57
2022/03/06 06:09:22;;;;;;;20.40;14.97;;;;;;;;;;4449476;32;20220;-58
2022/03/06 06:11:47;;;;;;;20.33;12.23;;;;;;;;;;4449533;32;20616;-58
2022/03/06 06:14:13;;;;;;;22.53;15.13;;;;;;;;;;4448801;32;20231;-57
2022/03/06 06:16:38;;;;;;;33.73;17.90;;;;;;;;;;4449278;32;20824;-57
2022/03/06 06:19:05;;;;;;;20.40;12.70;;;;;;;;;;4435222;32;20649;-58
2022/03/06 06:21:30;;;;;;;20.07;11.57;;;;;;;;;;4449358;32;20337;-59
2022/03/06 06:23:56;;;;;;;19.03;11.40;;;;;;;;;;4449295;32;20292;-57
2022/03/06 06:26:24;;;;;;;17.47;11.47;;;;;;;;;;4447701;32;20327;-58
2022/03/06 06:28:55;;;;;;;18.20;13.17;;;;;;;;;;4449148;32;20283;-59
2022/03/06 06:31:24;;;;;;;35.90;20.60;;;;;;;;;;4447229;32;20219;-58
2022/03/06 06:33:50;;;;;;;38.87;25.40;;;;;;;;;;4449051;32;20231;-59
2022/03/06 06:36:17;;;;;;;34.37;21.20;;;;;;;;;;4448851;32;20287;-58
2022/03/06 06:38:43;;;;;;;17.00;10.37;;;;;;;;;;4448898;32;20252;-59
2022/03/06 06:41:09;;;;;;;20.40;13.53;;;;;;;;;;4448408;32;20192;-58
2022/03/06 06:43:34;;;;;;;30.30;18.40;;;;;;;;;;4448195;32;20240;-58
2022/03/06 06:45:59;;;;;;;36.97;24.53;;;;;;;;;;4448454;32;20257;-58
2022/03/06 06:48:25;;;;;;;29.97;19.13;;;;;;;;;;4448413;32;20307;-58
2022/03/06 06:50:51;;;;;;;24.80;14.53;;;;;;;;;;4434742;32;20666;-58
2022/03/06 06:53:16;;;;;;;21.13;14.10;;;;;;;;;;4448639;32;20692;-59
2022/03/06 06:55:41;;;;;;;15.40;8.77;;;;;;;;;;4448475;32;20243;-58
2022/03/06 06:58:07;;;;;;;13.93;9.50;;;;;;;;;;4434415;32;20390;-59
2022/03/06 07:00:34;;;;;;;9.10;5.43;;;;;;;;;;4448247;32;20655;-58
2022/03/06 07:03:00;;;;;;;11.10;5.87;;;;;;;;;;4448403;32;20275;-58
2022/03/06 07:05:25;;;;;;;5.47;3.40;;;;;;;;;;4448641;32;20638;-59
2022/03/06 07:07:51;;;;;;;6.67;3.60;;;;;;;;;;4434323;32;20403;-58
2022/03/06 07:10:16;;;;;;;13.20;4.70;;;;;;;;;;4433966;32;20274;-59
2022/03/06 07:12:44;;;;;;;24.50;12.40;;;;;;;;;;4436340;32;20319;-58
2022/03/06 07:15:11;;;;;;;39.37;22.87;;;;;;;;;;4463653;32;20224;-58
2022/03/06 07:17:37;;;;;;;51.57;25.70;;;;;;;;;;4449810;32;20229;-57
2022/03/06 07:20:03;;;;;;;69.07;41.67;;;;;;;;;;4458528;32;20679;-58
2022/03/06 07:22:29;;;;;;;45.70;26.17;;;;;;;;;;4448277;32;20216;-57
2022/03/06 07:24:54;;;;;;;60.60;34.60;;;;;;;;;;4448244;32;20244;-58
2022/03/06 07:27:20;;;;;;;51.77;31.47;;;;;;;;;;4448369;32;20233;-59
2022/03/06 07:29:45;;;;;;;57.63;34.33;;;;;;;;;;4448387;32;20312;-58
2022/03/06 07:32:11;;;;;;;58.57;28.60;;;;;;;;;;4448023;32;20725;-58
2022/03/06 07:34:36;;;;;;;45.23;22.50;;;;;;;;;;4448048;32;20756;-58
2022/03/06 07:37:02;;;;;;;50.73;24.83;;;;;;;;;;4448449;32;20296;-59
2022/03/06 07:39:28;;;;;;;60.77;29.60;;;;;;;;;;4453504;32;20292;-58
2022/03/06 07:41:54;;;;;;;74.53;36.07;;;;;;;;;;4463661;32;20294;-58
2022/03/06 07:44:19;;;;;;;66.03;36.33;;;;;;;;;;4448501;32;20347;-58
2022/03/06 07:46:45;;;;;;;53.23;28.47;;;;;;;;;;4463827;32;20283;-58
2022/03/06 07:49:10;;;;;;;49.03;27.57;;;;;;;;;;4449284;32;20438;-56
2022/03/06 07:51:36;;;;;;;231.77;105.83;;;;;;;;;;4463914;32;20283;-58
2022/03/06 07:54:01;;;;;;;266.60;117.43;;;;;;;;;;4449193;32;20295;-59
2022/03/06 07:56:27;;;;;;;71.67;37.83;;;;;;;;;;4448889;32;20811;-57
2022/03/06 07:58:52;;;;;;;44.77;27.63;;;;;;;;;;4463193;32;20390;-57
2022/03/06 08:01:18;;;;;;;43.20;28.30;;;;;;;;;;4463406;32;20339;-58
2022/03/06 08:03:43;;;;;;;55.97;30.50;;;;;;;;;;4463264;32;20393;-57
2022/03/06 08:06:09;;;;;;;110.23;51.27;;;;;;;;;;4462879;32;20262;-58
2022/03/06 08:08:34;;;;;;;166.70;75.50;;;;;;;;;;4463384;32;20687;-58
2022/03/06 08:11:00;;;;;;;54.37;33.47;;;;;;;;;;4463234;32;20595;-58
2022/03/06 08:13:25;;;;;;;51.67;31.90;;;;;;;;;;4441400;32;20399;-57
2022/03/06 08:15:51;;;;;;;55.53;34.27;;;;;;;;;;4433351;32;20244;-58
2022/03/06 08:18:16;;;;;;;47.00;29.70;;;;;;;;;;4447296;32;20301;-58
2022/03/06 08:20:42;;;;;;;72.03;39.97;;;;;;;;;;4447294;32;20291;-56
2022/03/06 08:23:07;;;;;;;55.57;36.17;;;;;;;;;;4447267;32;20326;-57
2022/03/06 08:25:32;;;;;;;55.47;35.00;;;;;;;;;;4447407;32;20287;-57
2022/03/06 08:27:58;;;;;;;33.37;19.50;;;;;;;;;;4446393;32;20711;-58
2022/03/06 08:30:23;;;;;;;42.47;24.43;;;;;;;;;;4447275;32;20335;-57
2022/03/06 08:32:49;;;;;;;37.97;21.33;;;;;;;;;;4447615;32;20275;-57
2022/03/06 08:35:14;;;;;;;23.20;13.47;;;;;;;;;;4448743;32;20237;-58
2022/03/06 08:37:40;;;;;;;25.47;15.93;;;;;;;;;;4463251;32;20309;-57
2022/03/06 08:40:06;;;;;;;14.60;7.83;;;;;;;;;;4463023;32;20237;-57
2022/03/06 08:42:31;;;;;;;11.63;8.73;;;;;;;;;;4463190;32;20303;-57
2022/03/06 08:44:57;;;;;;;18.93;10.47;;;;;;;;;;4462526;32;20227;-57
2022/03/06 08:47:23;;;;;;;21.57;12.20;;;;;;;;;;4448803;32;20303;-57
2022/03/06 08:49:48;;;;;;;22.63;12.10;;;;;;;;;;4462797;32;20589;-57
2022/03/06 08:52:14;;;;;;;20.00;10.90;;;;;;;;;;4463196;32;20771;-57
2022/03/06 08:54:39;;;;;;;18.87;11.83;;;;;;;;;;4462349;32;20216;-57
2022/03/06 08:57:05;;;;;;;42.77;20.67;;;;;;;;;;4448484;32;20325;-57
2022/03/06 08:59:30;;;;;;;27.23;12.83;;;;;;;;;;4462487;32;20310;-57
2022/03/06 09:01:56;;;;;;;14.13;9.67;;;;;;;;;;4462948;32;20283;-57
2022/03/06 09:04:23;;;;;;;15.93;9.63;;;;;;;;;;4462683;32;20288;-57
2022/03/06 09:06:49;;;;;;;16.27;10.83;;;;;;;;;;4462799;32;20239;-58
2022/03/06 09:09:14;;;;;;;14.13;8.77;;;;;;;;;;4448103;32;20244;-57
2022/03/06 09:11:40;;;;;;;13.23;8.30;;;;;;;;;;4462875;32;20298;-58
2022/03/06 09:14:07;;;;;;;16.03;10.27;;;;;;;;;;4461673;32;20315;-57
2022/03/06 09:16:32;;;;;;;13.30;9.67;;;;;;;;;;4462468;32;20280;-57
2022/03/06 09:18:58;;;;;;;26.80;16.63;;;;;;;;;;4462478;32;20600;-57
2022/03/06 09:21:23;;;;;;;19.57;14.73;;;;;;;;;;4448087;32;20361;-57
2022/03/06 09:23:49;;;;;;;21.13;15.53;;;;;;;;;;4448083;32;20296;-57
2022/03/06 09:26:15;;;;;;;23.97;13.83;;;;;;;;;;4462237;32;20293;-58
2022/03/06 09:28:40;;;;;;;26.87;15.53;;;;;;;;;;4462573;32;20626;-58
2022/03/06 09:31:05;;;;;;;27.97;15.13;;;;;;;;;;4461981;32;20253;-58
2022/03/06 09:33:31;;;;;;;31.70;14.47;;;;;;;;;;4462287;32;20295;-57
2022/03/06 09:35:57;;;;;;;31.50;19.23;;;;;;;;;;4448208;32;20261;-58
2022/03/06 09:38:22;;;;;;;34.70;15.60;;;;;;;;;;4462110;32;20740;-57
2022/03/06 09:40:49;;;;;;;27.23;13.57;;;;;;;;;;4462392;32;20212;-57
2022/03/06 09:43:18;;;;;;;28.23;13.63;;;;;;;;;;4462276;32;20648;-57
2022/03/06 09:45:45;;;;;;;22.60;11.50;;;;;;;;;;4462270;32;20286;-58
2022/03/06 09:48:12;;;;;;;29.67;16.40;;;;;;;;;;4448096;32;20302;-58
2022/03/06 09:50:37;;;;;;;37.70;18.27;;;;;;;;;;4462224;32;20306;-57
2022/03/06 09:53:03;;;;;;;14.00;9.37;;;;;;;;;;4462137;32;20272;-58
2022/03/06 09:55:30;;;;;;;11.73;7.53;;;;;;;;;;4462018;32;20381;-57
2022/03/06 09:57:57;;;;;;;5.97;4.90;;;;;;;;;;4462091;32;20255;-58
2022/03/06 10:00:23;;;;;;;8.30;6.27;;;;;;;;;;4462284;32;20247;-58
2022/03/06 10:03:00;;;;;;;10.67;7.63;;;;;;;;;;4462454;32;20355;-58
2022/03/06 10:05:37;;;;;;;13.23;8.47;;;;;;;;;;4462534;32;20240;-56
2022/03/06 10:08:16;;;;;;;10.47;7.33;;;;;;;;;;4464313;32;20214;-58
2022/03/06 10:10:43;;;;;;;18.17;7.83;;;;;;;;;;4465031;32;20254;-58
2022/03/06 10:13:22;;;;;;;9.37;6.83;;;;;;;;;;4459345;32;20259;-58
2022/03/06 10:16:10;;;;;;;12.00;7.83;;;;;;;;;;4435316;32;20257;-59
2022/03/06 10:18:47;;;;;;;14.00;9.37;;;;;;;;;;4449652;32;20259;-58
2022/03/06 10:21:14;;;;;;;14.57;8.30;;;;;;;;;;4457669;32;20674;-58
2022/03/06 10:23:41;;;;;;;20.10;11.33;;;;;;;;;;4464947;32;20213;-59
2022/03/06 10:26:14;;;;;;;23.80;15.20;;;;;;;;;;4450494;32;20580;-59
2022/03/06 10:28:55;;;;;;;18.40;11.67;;;;;;;;;;4464640;32;20211;-59
2022/03/06 10:31:23;;;;;;;19.03;10.93;;;;;;;;;;4437725;32;20269;-58
2022/03/06 10:34:01;;;;;;;27.53;15.03;;;;;;;;;;4450632;32;20263;-60
2022/03/06 10:36:40;;;;;;;23.33;13.23;;;;;;;;;;4450628;32;20332;-60
2022/03/06 10:39:12;;;;;;;21.07;12.20;;;;;;;;;;4450421;32;20281;-59
2022/03/06 10:41:40;;;;;;;21.10;12.33;;;;;;;;;;4464575;32;20204;-59
2022/03/06 10:44:08;;;;;;;11.17;8.33;;;;;;;;;;4464360;32;20212;-59
2022/03/06 10:46:35;;;;;;;20.37;10.77;;;;;;;;;;4464346;32;20500;-58
2022/03/06 10:49:08;;;;;;;14.13;9.47;;;;;;;;;;4437285;32;20219;-58
2022/03/06 10:51:47;;;;;;;21.40;12.07;;;;;;;;;;4450333;32;20290;-58
2022/03/06 10:54:14;;;;;;;33.80;15.87;;;;;;;;;;4464152;32;20270;-57
2022/03/06 10:56:43;;;;;;;22.07;12.03;;;;;;;;;;4464330;32;20219;-58
2022/03/06 10:59:09;;;;;;;27.93;15.60;;;;;;;;;;4449853;32;20232;-58
2022/03/06 11:01:34;;;;;;;28.70;16.87;;;;;;;;;;4449833;32;20290;-58
2022/03/06 11:04:06;;;;;;;19.77;12.67;;;;;;;;;;4464257;32;20239;-57
2022/03/06 11:06:40;;;;;;;46.27;23.93;;;;;;;;;;4464461;32;20707;-58
2022/03/06 11:09:16;;;;;;;155.10;67.03;;;;;;;;;;4463783;32;20243;-58
2022/03/06 11:11:43;;;;;;;28.80;16.60;;;;;;;;;;4464134;32;20604;-57
2022/03/06 11:14:10;;;;;;;29.00;14.90;;;;;;;;;;4462960;32;20302;-57
2022/03/06 11:16:37;;;;;;;26.10;13.67;;;;;;;;;;4464193;32;20541;-58
2022/03/06 11:19:04;;;;;;;16.63;9.70;;;;;;;;;;4463738;32;20711;-58
2022/03/06 11:21:33;;;;;;;21.90;13.00;;;;;;;;;;4449238;32;20204;-58
2022/03/06 11:24:00;;;;;;;22.80;15.30;;;;;;;;;;4450604;32;20676;-58
2022/03/06 11:27:01;;;;;;;59.87;29.17;;;;;;;;;;4463500;32;20223;-58
2022/03/06 11:29:48;;;;;;;60.97;28.47;;;;;;;;;;4463667;32;20633;-58
2022/03/06 11:32:23;;;;;;;151.70;63.17;;;;;;;;;;4463823;32;20359;-58
2022/03/06 11:34:53;;;;;;;55.90;26.50;;;;;;;;;;4463784;32;20254;-57
2022/03/06 11:37:18;;;;;;;55.17;28.07;;;;;;;;;;4463629;32;20274;-57
2022/03/06 11:39:46;;;;;;;25.63;14.70;;;;;;;;;;4463949;32;20714;-58
2022/03/06 11:42:49;;;;;;;22.20;14.67;;;;;;;;;;4449327;32;20287;-57
2022/03/06 11:45:51;;;;;;;52.43;28.63;;;;;;;;;;4463383;32;20224;-58
2022/03/06 11:48:41;;;;;;;53.43;27.63;;;;;;;;;;4414895;32;20288;-58
2022/03/06 11:51:22;;;;;;;45.27;22.90;;;;;;;;;;4448666;32;20232;-57
2022/03/06 11:54:01;;;;;;;34.07;23.27;;;;;;;;;;4463896;32;20302;-57
2022/03/06 11:56:33;;;;;;;45.03;26.00;;;;;;;;;;4463477;32;20204;-58
2022/03/06 11:59:09;;;;;;;24.03;15.57;;;;;;;;;;4463365;32;20248;-57
2022/03/06 12:01:55;;;;;;;30.70;19.47;;;;;;;;;;4449053;32;20811;-57
2022/03/06 12:04:24;;;;;;;39.70;23.07;;;;;;;;;;4449263;32;20679;-58
2022/03/06 12:06:56;;;;;;;52.63;29.50;;;;;;;;;;4463216;32;20292;-57
2022/03/06 12:09:32;;;;;;;32.40;21.20;;;;;;;;;;4463357;32;20251;-57
2022/03/06 12:12:18;;;;;;;61.83;25.77;;;;;;;;;;4463662;32;20499;-58
2022/03/06 12:14:57;;;;;;;38.70;17.70;;;;;;;;;;4448020;32;20221;-58
2022/03/06 12:17:34;;;;;;;18.90;11.63;;;;;;;;;;4447942;32;20293;-56
2022/03/06 12:19:59;;;;;;;77.27;25.80;;;;;;;;;;4437925;32;20532;-57
2022/03/06 12:22:28;;;;;;;111.23;40.73;;;;;;;;;;4462789;32;20363;-59
2022/03/06 12:25:09;;;;;;;25.57;11.30;;;;;;;;;;4448958;32;20277;-58
2022/03/06 12:27:36;;;;;;;21.00;8.70;;;;;;;;;;4463048;32;20822;-57
2022/03/06 12:30:07;;;;;;;86.30;29.10;;;;;;;;;;4448430;32;20219;-57
2022/03/06 12:32:38;;;;;;;12.80;7.00;;;;;;;;;;4463208;32;20220;-58
2022/03/06 12:35:15;;;;;;;8.23;5.60;;;;;;;;;;4463275;32;20291;-57
2022/03/06 12:37:56;;;;;;;20.80;12.67;;;;;;;;;;4462531;32;20283;-57
2022/03/06 12:40:24;;;;;;;6.97;5.00;;;;;;;;;;4448321;32;20270;-58
2022/03/06 12:43:01;;;;;;;13.77;8.07;;;;;;;;;;4462637;32;20200;-58
2022/03/06 12:45:27;;;;;;;12.00;8.50;;;;;;;;;;4448471;32;20592;-57
2022/03/06 12:47:52;;;;;;;6.60;5.07;;;;;;;;;;4462636;32;20725;-58
2022/03/06 12:50:20;;;;;;;8.73;5.90;;;;;;;;;;4448661;32;20319;-57
2022/03/06 12:52:47;;;;;;;5.93;4.00;;;;;;;;;;4462531;32;20279;-56
2022/03/06 12:55:17;;;;;;;14.23;8.23;;;;;;;;;;4462354;32;20278;-57
2022/03/06 12:57:44;;;;;;;9.73;5.77;;;;;;;;;;4448439;32;20562;-58
2022/03/06 13:00:14;;;;;;;4.80;3.67;;;;;;;;;;4462756;32;20623;-58
2022/03/06 13:02:40;;;;;;;6.47;5.33;;;;;;;;;;4462807;32;20278;-57
2022/03/06 13:05:07;;;;;;;9.43;5.73;;;;;;;;;;4448474;32;20224;-57
2022/03/06 13:07:36;;;;;;;5.43;4.37;;;;;;;;;;4462908;32;20251;-58
2022/03/06 13:10:07;;;;;;;8.00;4.33;;;;;;;;;;4462558;32;20220;-57
2022/03/06 13:12:38;;;;;;;11.07;6.10;;;;;;;;;;4462276;32;20232;-58
2022/03/06 13:15:13;;;;;;;10.53;7.00;;;;;;;;;;4448473;32;20321;-58
2022/03/06 13:17:46;;;;;;;9.67;7.73;;;;;;;;;;4462467;32;20805;-57
2022/03/06 13:20:15;;;;;;;14.20;6.67;;;;;;;;;;4448286;32;20576;-56
2022/03/06 13:22:41;;;;;;;13.93;8.27;;;;;;;;;;4448079;32;20299;-58
2022/03/06 13:25:07;;;;;;;8.67;6.27;;;;;;;;;;4462169;32;20240;-57
2022/03/06 13:27:38;;;;;;;10.83;5.67;;;;;;;;;;4448052;32;20282;-58
2022/03/06 13:30:14;;;;;;;9.83;6.63;;;;;;;;;;4462496;32;20725;-58
2022/03/06 13:32:51;;;;;;;12.37;7.73;;;;;;;;;;4462703;32;20215;-58
2022/03/06 13:35:39;;;;;;;14.40;9.47;;;;;;;;;;4462319;32;20244;-57
2022/03/06 13:38:08;;;;;;;11.17;7.73;;;;;;;;;;4462375;32;20196;-59
2022/03/06 13:40:36;;;;;;;13.57;8.90;;;;;;;;;;4462649;32;20260;-58
2022/03/06 13:43:03;;;;;;;15.90;10.53;;;;;;;;;;4465173;32;20267;-58
2022/03/06 13:45:28;;;;;;;20.47;10.90;;;;;;;;;;4465198;32;20248;-57
2022/03/06 13:48:00;;;;;;;17.07;11.13;;;;;;;;;;4451143;32;20559;-58
2022/03/06 13:50:35;;;;;;;24.03;13.20;;;;;;;;;;4451209;32;20225;-57
2022/03/06 13:53:03;;;;;;;163.07;78.63;;;;;;;;;;4465521;32;20183;-57
2022/03/06 13:55:30;;;;;;;24.43;14.07;;;;;;;;;;4465369;32;20379;-58
2022/03/06 13:58:00;;;;;;;21.73;11.60;;;;;;;;;;4451045;32;20247;-57
2022/03/06 14:00:29;;;;;;;30.20;17.30;;;;;;;;;;4464932;32;20263;-57
2022/03/06 14:03:04;;;;;;;33.57;21.63;;;;;;;;;;4465153;32;20329;-58
2022/03/06 14:05:38;;;;;;;160.93;97.97;;;;;;;;;;4464815;32;20392;-58
2022/03/06 14:08:14;;;;;;;71.20;34.93;;;;;;;;;;4464983;32;20239;-57
2022/03/06 14:10:44;;;;;;;40.90;22.60;;;;;;;;;;4464801;32;20334;-57
2022/03/06 14:13:22;;;;;;;31.83;18.73;;;;;;;;;;4464446;32;20232;-58
2022/03/06 14:15:47;;;;;;;26.13;16.53;;;;;;;;;;4464939;32;20621;-58
2022/03/06 14:18:32;;;;;;;23.07;14.83;;;;;;;;;;4450651;32;20608;-58
2022/03/06 14:20:58;;;;;;;25.87;14.80;;;;;;;;;;4453774;32;20261;-58
2022/03/06 14:23:24;;;;;;;27.10;14.83;;;;;;;;;;4449000;32;20291;-57
2022/03/06 14:25:50;;;;;;;23.07;15.53;;;;;;;;;;4447938;32;20250;-57